Time;durP1;ratioP1;P1;durP2;ratioP2;P2;SDS_P1;SDS_P2;PMS_P1;PMS_P2;Temp;Humidity;BMP_temperature;BMP_pressure;BME280_temperature;BME280_humidity;BME280_pressure;Samples;Min_cycle;Max_cycle;Signal;HPM_P1;HPM_P2
2023/08/08 00:01:07;;;;;;;9.93;5.40;;;;;;;;;;5017019;28;20181;-74
2023/08/08 00:03:34;;;;;;;10.70;6.20;;;;;;;;;;5016743;28;20255;-74
2023/08/08 00:06:00;;;;;;;11.63;5.90;;;;;;;;;;5033248;28;20261;-74
2023/08/08 00:08:26;;;;;;;10.30;6.17;;;;;;;;;;5016522;28;20227;-74
2023/08/08 00:10:52;;;;;;;10.97;6.00;;;;;;;;;;5016573;28;20184;-74
2023/08/08 00:13:18;;;;;;;11.80;6.27;;;;;;;;;;5017064;28;20199;-75
2023/08/08 00:15:44;;;;;;;13.03;6.13;;;;;;;;;;5032921;28;20180;-75
2023/08/08 00:18:10;;;;;;;7.30;5.93;;;;;;;;;;5032793;28;20207;-75
2023/08/08 00:20:36;;;;;;;9.00;6.57;;;;;;;;;;5016475;28;20181;-75
2023/08/08 00:23:02;;;;;;;12.17;6.53;;;;;;;;;;5033035;28;20236;-75
2023/08/08 00:25:28;;;;;;;14.23;6.63;;;;;;;;;;5033060;28;20264;-75
2023/08/08 00:27:54;;;;;;;9.23;6.70;;;;;;;;;;5033899;28;20176;-75
2023/08/08 00:30:20;;;;;;;10.80;6.90;;;;;;;;;;5032715;28;20181;-75
2023/08/08 00:32:46;;;;;;;9.53;6.93;;;;;;;;;;5016510;28;20208;-75
2023/08/08 00:35:12;;;;;;;12.20;7.20;;;;;;;;;;5034120;28;20220;-80
2023/08/08 00:37:38;;;;;;;13.97;7.03;;;;;;;;;;5032684;28;20212;-80
2023/08/08 00:40:05;;;;;;;8.37;6.83;;;;;;;;;;5032983;28;20187;-80
2023/08/08 00:42:31;;;;;;;17.00;7.53;;;;;;;;;;5016384;28;20185;-80
2023/08/08 00:45:03;;;;;;;11.23;6.87;;;;;;;;;;5032755;28;20180;-80
2023/08/08 00:47:30;;;;;;;11.43;6.53;;;;;;;;;;5032789;28;20181;-80
2023/08/08 00:49:57;;;;;;;16.43;7.10;;;;;;;;;;5032673;28;20255;-80
2023/08/08 00:52:23;;;;;;;13.53;7.40;;;;;;;;;;5033819;28;20211;-76
2023/08/08 00:54:49;;;;;;;12.07;7.10;;;;;;;;;;5016145;28;20188;-76
2023/08/08 00:57:15;;;;;;;9.67;6.90;;;;;;;;;;5032731;28;20283;-75
2023/08/08 00:59:41;;;;;;;12.73;7.00;;;;;;;;;;5016298;28;20187;-80
2023/08/08 01:02:07;;;;;;;13.97;6.97;;;;;;;;;;5019072;28;20181;-80
2023/08/08 01:04:33;;;;;;;9.73;7.03;;;;;;;;;;5038679;28;20202;-80
2023/08/08 01:07:11;;;;;;;9.80;6.50;;;;;;;;;;5037389;28;20189;-79
2023/08/08 01:09:39;;;;;;;9.67;6.93;;;;;;;;;;5036286;28;20183;-75
2023/08/08 01:12:08;;;;;;;12.63;6.57;;;;;;;;;;5037222;28;20181;-76
2023/08/08 01:14:35;;;;;;;10.90;6.87;;;;;;;;;;5037062;28;20191;-76
2023/08/08 01:17:01;;;;;;;11.27;6.50;;;;;;;;;;5019497;28;20224;-76
2023/08/08 01:19:28;;;;;;;11.67;7.30;;;;;;;;;;5036508;28;20185;-76
2023/08/08 01:21:57;;;;;;;12.83;6.60;;;;;;;;;;5035745;28;20279;-74
2023/08/08 01:24:29;;;;;;;13.33;6.73;;;;;;;;;;5036892;28;20227;-80
2023/08/08 01:26:56;;;;;;;11.67;7.03;;;;;;;;;;5035948;28;20191;-76
2023/08/08 01:29:22;;;;;;;10.70;6.80;;;;;;;;;;5037123;28;20176;-75
2023/08/08 01:31:48;;;;;;;15.73;7.60;;;;;;;;;;5036227;28;20177;-75
2023/08/08 01:34:14;;;;;;;13.33;7.33;;;;;;;;;;5035794;28;20189;-75
2023/08/08 01:36:57;;;;;;;13.50;7.37;;;;;;;;;;5035605;28;20176;-74
2023/08/08 01:39:26;;;;;;;12.47;7.20;;;;;;;;;;5036815;28;20211;-74
2023/08/08 01:41:53;;;;;;;17.70;7.40;;;;;;;;;;5036710;28;20248;-75
2023/08/08 01:44:19;;;;;;;11.20;6.80;;;;;;;;;;5036618;28;20211;-76
2023/08/08 01:46:46;;;;;;;12.03;7.07;;;;;;;;;;5036614;28;20177;-75
2023/08/08 01:49:12;;;;;;;14.17;7.23;;;;;;;;;;5036562;28;20199;-75
2023/08/08 01:51:38;;;;;;;12.17;6.93;;;;;;;;;;5019077;28;20185;-75
2023/08/08 01:54:04;;;;;;;12.77;7.70;;;;;;;;;;5026456;28;20187;-75
2023/08/08 01:56:30;;;;;;;14.13;7.47;;;;;;;;;;5029904;28;20177;-76
2023/08/08 01:58:56;;;;;;;10.93;6.73;;;;;;;;;;5027161;28;20217;-80
2023/08/08 02:01:22;;;;;;;13.43;7.57;;;;;;;;;;5011571;28;20177;-80
2023/08/08 02:03:48;;;;;;;16.00;7.00;;;;;;;;;;5008328;28;20276;-80
2023/08/08 02:06:15;;;;;;;17.80;7.47;;;;;;;;;;5018089;28;20268;-75
2023/08/08 02:08:41;;;;;;;17.27;7.23;;;;;;;;;;5017103;28;20177;-76
2023/08/08 02:11:07;;;;;;;11.87;7.10;;;;;;;;;;5032466;28;20189;-76
2023/08/08 02:13:33;;;;;;;16.77;6.50;;;;;;;;;;5034428;28;20238;-76
2023/08/08 02:15:59;;;;;;;17.73;6.80;;;;;;;;;;5015271;28;20193;-80
2023/08/08 02:18:25;;;;;;;16.13;6.83;;;;;;;;;;5035880;28;20300;-80
2023/08/08 02:20:51;;;;;;;16.17;7.03;;;;;;;;;;5016568;28;20185;-80
2023/08/08 02:23:18;;;;;;;16.87;7.07;;;;;;;;;;5015500;28;20234;-80
2023/08/08 02:25:44;;;;;;;11.80;6.50;;;;;;;;;;4999297;28;20185;-76
2023/08/08 02:28:10;;;;;;;14.17;6.90;;;;;;;;;;5029317;28;20191;-76
2023/08/08 02:30:36;;;;;;;15.00;6.97;;;;;;;;;;5034833;28;20183;-75
2023/08/08 02:33:02;;;;;;;14.63;7.10;;;;;;;;;;5018276;28;20200;-76
2023/08/08 02:35:29;;;;;;;14.13;6.77;;;;;;;;;;5035461;28;20187;-76
2023/08/08 02:37:55;;;;;;;14.43;6.90;;;;;;;;;;5035521;28;20208;-76
2023/08/08 02:40:23;;;;;;;14.13;6.30;;;;;;;;;;5034897;28;20208;-76
2023/08/08 02:42:49;;;;;;;13.40;6.53;;;;;;;;;;5018517;28;20189;-75
2023/08/08 02:45:15;;;;;;;12.63;6.13;;;;;;;;;;5034572;28;20184;-76
2023/08/08 02:47:41;;;;;;;13.20;5.80;;;;;;;;;;5034358;28;20183;-75
2023/08/08 02:50:07;;;;;;;10.97;6.23;;;;;;;;;;5035020;28;20181;-75
2023/08/08 02:52:33;;;;;;;12.60;6.07;;;;;;;;;;5034229;28;20185;-75
2023/08/08 02:54:59;;;;;;;10.60;6.23;;;;;;;;;;5035312;28;20184;-76
2023/08/08 02:57:25;;;;;;;13.40;5.97;;;;;;;;;;5018071;28;20298;-76
2023/08/08 02:59:51;;;;;;;12.47;6.10;;;;;;;;;;5034609;28;20259;-76
2023/08/08 03:02:17;;;;;;;11.30;5.80;;;;;;;;;;5017434;28;20184;-75
2023/08/08 03:04:43;;;;;;;10.53;6.23;;;;;;;;;;5017610;28;20176;-76
2023/08/08 03:07:09;;;;;;;13.37;6.37;;;;;;;;;;5033895;28;20181;-76
2023/08/08 03:09:35;;;;;;;10.53;5.67;;;;;;;;;;5017484;28;20189;-76
2023/08/08 03:12:01;;;;;;;10.77;5.90;;;;;;;;;;5033919;28;20246;-76
2023/08/08 03:14:27;;;;;;;10.17;5.87;;;;;;;;;;5017328;28;20224;-76
2023/08/08 03:16:54;;;;;;;13.47;6.17;;;;;;;;;;5033829;28;20188;-76
2023/08/08 03:19:19;;;;;;;13.27;6.27;;;;;;;;;;5033640;28;20220;-76
2023/08/08 03:21:45;;;;;;;11.93;6.33;;;;;;;;;;5033581;28;20211;-76
2023/08/08 03:24:12;;;;;;;11.90;6.50;;;;;;;;;;5016619;28;20187;-76
2023/08/08 03:26:38;;;;;;;17.70;7.10;;;;;;;;;;5034416;28;20185;-76
2023/08/08 03:29:04;;;;;;;14.63;7.43;;;;;;;;;;5017035;28;20177;-75
2023/08/08 03:31:30;;;;;;;14.53;7.17;;;;;;;;;;5033510;28;20176;-76
2023/08/08 03:33:56;;;;;;;15.37;7.47;;;;;;;;;;5033375;28;20180;-76
2023/08/08 03:36:22;;;;;;;13.23;7.47;;;;;;;;;;5033530;28;20185;-76
2023/08/08 03:38:48;;;;;;;13.77;7.90;;;;;;;;;;5016828;28;20204;-75
2023/08/08 03:41:14;;;;;;;15.73;7.87;;;;;;;;;;5017193;28;20181;-75
2023/08/08 03:43:40;;;;;;;16.67;8.30;;;;;;;;;;5033314;28;20183;-75
2023/08/08 03:46:07;;;;;;;17.23;8.93;;;;;;;;;;5033414;28;20180;-75
2023/08/08 03:48:33;;;;;;;17.43;9.20;;;;;;;;;;5034180;28;20184;-76
2023/08/08 03:50:59;;;;;;;22.50;9.10;;;;;;;;;;5034395;28;20176;-76
2023/08/08 03:53:25;;;;;;;15.33;8.67;;;;;;;;;;5033156;28;20275;-75
2023/08/08 03:55:51;;;;;;;21.13;9.37;;;;;;;;;;5012956;28;20252;-81
2023/08/08 03:58:17;;;;;;;19.10;8.73;;;;;;;;;;5032871;28;20208;-80
2023/08/08 04:00:45;;;;;;;20.17;9.27;;;;;;;;;;5017109;28;20232;-80
2023/08/08 04:03:12;;;;;;;17.47;9.40;;;;;;;;;;5017508;28;20177;-80
2023/08/08 04:05:38;;;;;;;19.63;9.30;;;;;;;;;;5034101;28;20177;-80
2023/08/08 04:08:05;;;;;;;18.87;9.30;;;;;;;;;;5033629;28;20259;-80
2023/08/08 04:10:31;;;;;;;19.80;9.33;;;;;;;;;;5017545;28;20254;-80
2023/08/08 04:12:57;;;;;;;19.70;9.83;;;;;;;;;;5033173;28;20267;-76
2023/08/08 04:15:23;;;;;;;20.07;9.73;;;;;;;;;;5034205;28;20272;-76
2023/08/08 04:17:49;;;;;;;19.60;9.63;;;;;;;;;;5016716;28;20216;-76
2023/08/08 04:20:15;;;;;;;21.60;9.73;;;;;;;;;;5033132;28;20275;-76
2023/08/08 04:22:41;;;;;;;15.27;9.10;;;;;;;;;;5040902;22;20239;-76
2023/08/08 04:25:07;;;;;;;18.23;9.43;;;;;;;;;;5016389;28;20258;-76
2023/08/08 04:27:34;;;;;;;21.00;10.13;;;;;;;;;;5037785;28;20187;-75
2023/08/08 04:30:00;;;;;;;21.90;10.23;;;;;;;;;;5036152;28;20241;-75
2023/08/08 04:32:26;;;;;;;16.60;9.43;;;;;;;;;;5053036;28;20194;-76
2023/08/08 04:34:52;;;;;;;25.37;10.03;;;;;;;;;;5052445;28;20190;-76
2023/08/08 04:37:18;;;;;;;20.37;9.53;;;;;;;;;;5026210;28;20208;-76
2023/08/08 04:39:44;;;;;;;21.23;10.00;;;;;;;;;;5052660;28;20180;-81
2023/08/08 04:42:10;;;;;;;21.43;10.20;;;;;;;;;;5019474;28;20223;-81
2023/08/08 04:44:36;;;;;;;24.70;10.20;;;;;;;;;;5036323;28;20204;-80
2023/08/08 04:47:02;;;;;;;19.67;10.07;;;;;;;;;;5019735;28;20181;-75
2023/08/08 04:49:31;;;;;;;21.40;10.37;;;;;;;;;;5035918;28;20191;-75
2023/08/08 04:51:57;;;;;;;20.50;10.30;;;;;;;;;;5019516;28;20212;-76
2023/08/08 04:54:23;;;;;;;22.07;10.73;;;;;;;;;;5036000;28;20211;-76
2023/08/08 04:56:49;;;;;;;23.80;10.17;;;;;;;;;;5021951;28;20188;-75
2023/08/08 04:59:15;;;;;;;18.87;9.80;;;;;;;;;;5036017;28;20191;-75
2023/08/08 05:01:41;;;;;;;24.23;10.93;;;;;;;;;;5016377;28;20279;-80
2023/08/08 05:04:07;;;;;;;25.67;10.90;;;;;;;;;;5035891;28;20243;-80
2023/08/08 05:06:33;;;;;;;20.03;10.93;;;;;;;;;;5019354;28;20180;-80
2023/08/08 05:08:59;;;;;;;18.03;8.83;;;;;;;;;;5035936;28;20264;-80
2023/08/08 05:11:25;;;;;;;17.10;10.23;;;;;;;;;;5019017;28;20180;-80
2023/08/08 05:13:51;;;;;;;23.47;10.63;;;;;;;;;;5035851;28;20192;-80
2023/08/08 05:16:17;;;;;;;17.63;11.23;;;;;;;;;;5035844;28;20188;-80
2023/08/08 05:18:45;;;;;;;18.63;10.80;;;;;;;;;;5019560;28;20205;-80
2023/08/08 05:21:11;;;;;;;24.00;11.67;;;;;;;;;;5019601;28;20181;-80
2023/08/08 05:23:37;;;;;;;18.53;10.67;;;;;;;;;;5035680;28;20227;-75
2023/08/08 05:26:03;;;;;;;24.07;11.83;;;;;;;;;;5035476;28;20207;-75
2023/08/08 05:28:29;;;;;;;22.33;11.23;;;;;;;;;;5036296;28;20176;-80
2023/08/08 05:30:56;;;;;;;22.20;11.03;;;;;;;;;;5034116;28;20239;-81
2023/08/08 05:33:22;;;;;;;21.40;11.17;;;;;;;;;;5037697;28;20243;-74
2023/08/08 05:35:48;;;;;;;20.30;11.53;;;;;;;;;;5033648;28;20180;-76
2023/08/08 05:38:14;;;;;;;20.40;11.23;;;;;;;;;;5036028;28;20232;-76
2023/08/08 05:40:40;;;;;;;20.60;10.83;;;;;;;;;;5019083;28;20181;-76
2023/08/08 05:43:08;;;;;;;20.60;11.10;;;;;;;;;;5035214;28;20243;-76
2023/08/08 05:45:34;;;;;;;19.10;11.07;;;;;;;;;;5037249;28;20176;-76
2023/08/08 05:48:00;;;;;;;18.10;10.17;;;;;;;;;;5017685;28;20192;-76
2023/08/08 05:50:28;;;;;;;25.53;11.57;;;;;;;;;;5034917;28;20173;-76
2023/08/08 05:52:54;;;;;;;18.13;10.27;;;;;;;;;;5034734;28;20212;-76
2023/08/08 05:55:20;;;;;;;20.13;10.63;;;;;;;;;;5015265;28;20200;-76
2023/08/08 05:57:46;;;;;;;18.50;10.50;;;;;;;;;;5016758;28;20271;-76
2023/08/08 06:00:12;;;;;;;17.57;9.57;;;;;;;;;;5051403;28;20176;-76
2023/08/08 06:02:38;;;;;;;19.23;10.33;;;;;;;;;;5018805;28;20201;-76
2023/08/08 06:05:05;;;;;;;24.13;10.23;;;;;;;;;;5035730;28;20172;-76
2023/08/08 06:07:31;;;;;;;21.73;9.50;;;;;;;;;;5035898;28;20185;-76
2023/08/08 06:09:57;;;;;;;16.73;9.57;;;;;;;;;;5034687;28;20180;-76
2023/08/08 06:12:23;;;;;;;21.53;9.87;;;;;;;;;;5034337;28;20234;-76
2023/08/08 06:14:49;;;;;;;21.03;9.70;;;;;;;;;;5018826;28;20181;-77
2023/08/08 06:17:15;;;;;;;17.90;8.97;;;;;;;;;;5013141;28;20208;-81
2023/08/08 06:19:45;;;;;;;16.03;8.87;;;;;;;;;;5034305;28;20176;-80
2023/08/08 06:22:11;;;;;;;17.27;9.00;;;;;;;;;;5034350;28;20232;-81
2023/08/08 06:24:37;;;;;;;16.27;8.73;;;;;;;;;;5017953;28;20183;-75
2023/08/08 06:27:03;;;;;;;19.07;8.50;;;;;;;;;;5014995;28;20211;-75
2023/08/08 06:29:30;;;;;;;18.53;8.53;;;;;;;;;;5034185;28;20236;-75
2023/08/08 06:31:56;;;;;;;13.23;8.00;;;;;;;;;;5015910;28;20238;-75
2023/08/08 06:34:22;;;;;;;16.03;7.90;;;;;;;;;;5034902;28;20168;-75
2023/08/08 06:36:48;;;;;;;16.83;8.60;;;;;;;;;;5018266;28;20187;-75
2023/08/08 06:39:15;;;;;;;13.03;7.13;;;;;;;;;;5034632;28;20181;-75
2023/08/08 06:41:41;;;;;;;16.63;7.00;;;;;;;;;;5034450;28;20199;-81
2023/08/08 06:44:08;;;;;;;19.07;7.60;;;;;;;;;;5018084;28;20173;-81
2023/08/08 06:46:34;;;;;;;13.20;6.70;;;;;;;;;;5056440;28;20177;-80
2023/08/08 06:49:01;;;;;;;13.43;6.43;;;;;;;;;;5067296;28;20184;-75
2023/08/08 06:51:27;;;;;;;17.27;6.73;;;;;;;;;;5015354;28;20189;-75
2023/08/08 06:53:53;;;;;;;15.30;6.80;;;;;;;;;;5033571;28;20215;-76
2023/08/08 06:56:19;;;;;;;13.40;6.27;;;;;;;;;;5035193;28;20184;-76
2023/08/08 06:58:45;;;;;;;12.67;6.30;;;;;;;;;;5034266;28;20242;-75
2023/08/08 07:01:12;;;;;;;10.83;5.70;;;;;;;;;;5017542;28;20191;-75
2023/08/08 07:03:38;;;;;;;11.23;6.00;;;;;;;;;;5033819;28;20185;-75
2023/08/08 07:06:04;;;;;;;12.23;5.37;;;;;;;;;;5034884;28;20172;-75
2023/08/08 07:08:30;;;;;;;12.67;5.30;;;;;;;;;;5017435;28;20214;-75
2023/08/08 07:10:57;;;;;;;12.40;5.17;;;;;;;;;;5048814;28;20192;-75
2023/08/08 07:13:23;;;;;;;9.10;5.23;;;;;;;;;;5049047;28;20173;-76
2023/08/08 07:15:49;;;;;;;10.67;4.90;;;;;;;;;;5053420;28;20187;-76
2023/08/08 07:18:16;;;;;;;9.70;4.73;;;;;;;;;;5046712;28;20215;-77
2023/08/08 07:20:42;;;;;;;7.83;4.30;;;;;;;;;;5033848;28;20247;-76
2023/08/08 07:23:08;;;;;;;11.03;4.40;;;;;;;;;;5017090;28;20227;-75
2023/08/08 07:25:35;;;;;;;10.43;4.03;;;;;;;;;;5033549;28;20275;-75
2023/08/08 07:28:01;;;;;;;12.53;3.77;;;;;;;;;;5018515;28;20191;-75
2023/08/08 07:30:27;;;;;;;11.20;3.83;;;;;;;;;;5047570;28;20189;-76
2023/08/08 07:32:53;;;;;;;9.67;2.87;;;;;;;;;;5065371;28;20207;-75
2023/08/08 07:35:19;;;;;;;6.20;2.80;;;;;;;;;;5047955;28;20180;-75
2023/08/08 07:37:45;;;;;;;5.97;2.50;;;;;;;;;;5042569;28;20204;-75
2023/08/08 07:40:21;;;;;;;7.43;2.40;;;;;;;;;;5040017;28;20259;-75
2023/08/08 07:42:48;;;;;;;5.77;1.97;;;;;;;;;;5037441;28;20203;-75
2023/08/08 07:45:14;;;;;;;3.33;1.83;;;;;;;;;;5025228;28;20207;-75
2023/08/08 07:47:40;;;;;;;7.93;1.87;;;;;;;;;;5026941;28;20188;-76
2023/08/08 07:50:08;;;;;;;6.80;2.00;;;;;;;;;;5050205;28;20183;-76
2023/08/08 07:52:34;;;;;;;5.53;1.70;;;;;;;;;;5036495;28;20227;-76
2023/08/08 07:55:00;;;;;;;3.93;1.73;;;;;;;;;;5037135;28;20283;-76
2023/08/08 07:57:35;;;;;;;5.20;1.60;;;;;;;;;;5062709;28;20222;-76
2023/08/08 08:00:11;;;;;;;5.30;1.67;;;;;;;;;;5062777;28;20184;-76
2023/08/08 08:02:37;;;;;;;4.10;1.70;;;;;;;;;;5039925;28;20179;-76
2023/08/08 08:05:07;;;;;;;6.07;1.83;;;;;;;;;;5036695;28;20180;-81
2023/08/08 08:07:34;;;;;;;5.25;1.90;;;;;;;;;;5033543;28;20419;-82
2023/08/08 08:10:00;;;;;;;4.72;1.95;;;;;;;;;;5032081;28;20417;-81
2023/08/08 08:12:26;;;;;;;4.60;1.90;;;;;;;;;;5030690;28;20188;-83
2023/08/08 08:14:52;;;;;;;5.00;1.60;;;;;;;;;;5065932;28;20188;-82
2023/08/08 08:17:18;;;;;;;6.35;1.70;;;;;;;;;;5048746;28;20447;-82
2023/08/08 08:19:44;;;;;;;3.70;1.67;;;;;;;;;;5065695;28;20417;-81
2023/08/08 08:22:10;;;;;;;6.03;1.75;;;;;;;;;;5032057;28;20426;-77
2023/08/08 08:24:36;;;;;;;4.05;1.30;;;;;;;;;;5015328;28;20414;-77
2023/08/08 08:27:02;;;;;;;4.03;1.60;;;;;;;;;;5031983;28;20402;-77
2023/08/08 08:29:28;;;;;;;3.80;1.58;;;;;;;;;;5015424;28;20409;-77
2023/08/08 08:31:54;;;;;;;4.35;1.50;;;;;;;;;;5030874;28;20498;-77
2023/08/08 08:34:20;;;;;;;3.55;1.50;;;;;;;;;;5039211;28;20412;-77
2023/08/08 08:36:46;;;;;;;4.07;1.50;;;;;;;;;;5035416;28;20400;-77
2023/08/08 08:39:12;;;;;;;4.30;1.45;;;;;;;;;;5052021;28;20444;-76
2023/08/08 08:41:38;;;;;;;2.63;1.60;;;;;;;;;;5035203;28;20411;-75
2023/08/08 08:44:05;;;;;;;5.22;1.50;;;;;;;;;;5037132;28;20460;-76
2023/08/08 08:46:32;;;;;;;4.57;1.40;;;;;;;;;;5030491;28;20420;-76
2023/08/08 08:48:59;;;;;;;4.35;1.50;;;;;;;;;;5035457;28;20412;-76
2023/08/08 08:51:26;;;;;;;3.10;1.40;;;;;;;;;;5051786;28;20450;-76
2023/08/08 08:53:52;;;;;;;4.28;1.40;;;;;;;;;;5036510;28;20421;-76
2023/08/08 08:56:19;;;;;;;3.28;1.25;;;;;;;;;;5042968;28;20423;-81
2023/08/08 08:58:45;;;;;;;4.83;1.47;;;;;;;;;;5052988;28;20292;-81
2023/08/08 09:01:12;;;;;;;4.22;1.38;;;;;;;;;;5037312;28;20428;-81
2023/08/08 09:03:38;;;;;;;2.73;1.27;;;;;;;;;;5038442;28;20177;-81
2023/08/08 09:06:05;;;;;;;3.70;1.30;;;;;;;;;;5028383;28;20413;-81
2023/08/08 09:08:31;;;;;;;3.20;1.47;;;;;;;;;;5013651;28;20486;-81
2023/08/08 09:10:57;;;;;;;4.10;1.50;;;;;;;;;;5045448;28;20446;-77
2023/08/08 09:13:26;;;;;;;3.22;1.40;;;;;;;;;;5030528;28;20408;-77
2023/08/08 09:15:53;;;;;;;3.00;1.40;;;;;;;;;;5033453;28;20193;-77
2023/08/08 09:18:19;;;;;;;3.92;1.40;;;;;;;;;;5031734;28;20437;-77
2023/08/08 09:20:51;;;;;;;2.20;1.20;;;;;;;;;;5034085;28;20409;-77
2023/08/08 09:23:17;;;;;;;2.58;1.20;;;;;;;;;;5066545;28;20440;-77
2023/08/08 09:25:43;;;;;;;2.95;1.13;;;;;;;;;;5068454;28;20406;-82
2023/08/08 09:28:09;;;;;;;3.40;1.20;;;;;;;;;;5061500;28;20480;-76
2023/08/08 09:30:35;;;;;;;2.97;1.13;;;;;;;;;;5068697;28;20409;-76
2023/08/08 09:33:02;;;;;;;2.28;1.15;;;;;;;;;;5051562;28;20418;-76
2023/08/08 09:35:31;;;;;;;4.50;1.30;;;;;;;;;;5051777;28;20455;-76
2023/08/08 09:37:57;;;;;;;2.35;1.10;;;;;;;;;;5050396;28;20431;-75
2023/08/08 09:40:23;;;;;;;2.75;1.30;;;;;;;;;;5015050;28;20415;-75
2023/08/08 09:42:52;;;;;;;2.35;1.10;;;;;;;;;;5016328;28;20403;-75
2023/08/08 09:45:18;;;;;;;1.42;1.02;;;;;;;;;;5015803;28;20447;-76
2023/08/08 09:47:44;;;;;;;4.10;1.10;;;;;;;;;;5035250;28;20421;-77
2023/08/08 09:50:10;;;;;;;2.72;1.10;;;;;;;;;;5035635;28;20409;-77
2023/08/08 09:52:39;;;;;;;2.13;1.10;;;;;;;;;;5067021;28;20457;-77
2023/08/08 09:55:06;;;;;;;2.92;1.10;;;;;;;;;;5047469;28;20502;-77
2023/08/08 09:57:32;;;;;;;3.42;1.20;;;;;;;;;;5038155;28;20438;-77
2023/08/08 09:59:59;;;;;;;1.73;1.10;;;;;;;;;;5054014;28;20519;-77
2023/08/08 10:02:25;;;;;;;3.53;1.13;;;;;;;;;;5040720;28;20406;-76
2023/08/08 10:04:53;;;;;;;3.65;1.10;;;;;;;;;;5036351;28;20434;-76
2023/08/08 10:07:19;;;;;;;2.35;1.20;;;;;;;;;;5068090;28;20421;-76
2023/08/08 10:09:46;;;;;;;1.50;1.07;;;;;;;;;;5034029;28;20238;-76
2023/08/08 10:12:13;;;;;;;2.70;1.13;;;;;;;;;;5018326;28;20235;-76
2023/08/08 10:14:42;;;;;;;1.63;1.17;;;;;;;;;;5019447;28;20469;-76
2023/08/08 10:17:08;;;;;;;2.90;1.10;;;;;;;;;;5052296;28;20451;-76
2023/08/08 10:19:35;;;;;;;2.07;1.20;;;;;;;;;;5053012;28;20416;-76
2023/08/08 10:22:05;;;;;;;2.03;1.27;;;;;;;;;;5037104;28;20463;-76
2023/08/08 10:24:35;;;;;;;3.30;1.20;;;;;;;;;;5054070;28;20420;-76
2023/08/08 10:27:02;;;;;;;2.03;1.20;;;;;;;;;;5051269;28;20464;-76
2023/08/08 10:29:29;;;;;;;1.90;1.10;;;;;;;;;;5067567;28;20180;-76
2023/08/08 10:32:05;;;;;;;2.33;1.10;;;;;;;;;;5017390;28;20493;-76
2023/08/08 10:34:41;;;;;;;3.38;1.15;;;;;;;;;;5033127;28;20425;-76
2023/08/08 10:37:15;;;;;;;2.65;1.20;;;;;;;;;;5033399;28;20405;-76
2023/08/08 10:40:00;;;;;;;3.87;1.00;;;;;;;;;;5034731;28;20192;-77
2023/08/08 10:42:27;;;;;;;1.93;0.93;;;;;;;;;;5067564;28;20184;-76
2023/08/08 10:44:58;;;;;;;2.08;1.10;;;;;;;;;;5068670;28;20516;-76
2023/08/08 10:47:24;;;;;;;3.53;1.20;;;;;;;;;;5041845;28;20180;-77
2023/08/08 10:50:03;;;;;;;1.97;1.10;;;;;;;;;;5033522;28;20485;-76
2023/08/08 10:52:29;;;;;;;2.78;1.10;;;;;;;;;;5041558;28;20436;-76
2023/08/08 10:54:56;;;;;;;2.30;1.20;;;;;;;;;;5017980;28;20447;-76
2023/08/08 10:57:26;;;;;;;1.77;1.10;;;;;;;;;;5053409;28;20432;-76
2023/08/08 10:59:52;;;;;;;2.08;1.20;;;;;;;;;;5054732;28;20396;-76
2023/08/08 11:02:20;;;;;;;2.55;1.30;;;;;;;;;;5018373;28;20402;-76
2023/08/08 11:04:46;;;;;;;3.92;1.52;;;;;;;;;;5042335;28;20406;-76
2023/08/08 11:07:14;;;;;;;2.58;1.17;;;;;;;;;;5052071;28;20411;-76
2023/08/08 11:09:40;;;;;;;3.28;1.10;;;;;;;;;;5041219;28;20416;-77
2023/08/08 11:12:13;;;;;;;2.00;1.10;;;;;;;;;;5032402;28;20474;-77
2023/08/08 11:14:39;;;;;;;1.57;1.17;;;;;;;;;;5034690;28;20169;-77
2023/08/08 11:17:05;;;;;;;2.47;1.30;;;;;;;;;;5033764;28;20394;-78
2023/08/08 11:19:32;;;;;;;3.58;1.40;;;;;;;;;;5032406;28;20421;-77
2023/08/08 11:21:58;;;;;;;3.13;1.42;;;;;;;;;;5016242;28;20441;-77
2023/08/08 11:24:24;;;;;;;3.10;1.30;;;;;;;;;;5033318;28;20401;-77
2023/08/08 11:26:51;;;;;;;2.47;1.33;;;;;;;;;;5016008;28;20409;-77
2023/08/08 11:29:17;;;;;;;3.13;1.55;;;;;;;;;;5033792;28;20526;-77
2023/08/08 11:31:43;;;;;;;2.28;1.40;;;;;;;;;;5032477;28;20570;-77
2023/08/08 11:34:12;;;;;;;3.38;1.50;;;;;;;;;;5043469;28;20412;-77
2023/08/08 11:36:38;;;;;;;5.37;1.57;;;;;;;;;;5053097;28;20194;-77
2023/08/08 11:39:07;;;;;;;2.43;1.20;;;;;;;;;;5053088;28;20207;-78
2023/08/08 11:41:34;;;;;;;2.53;1.30;;;;;;;;;;5052680;28;20503;-77
2023/08/08 11:44:01;;;;;;;3.05;1.40;;;;;;;;;;5052329;28;20487;-77
2023/08/08 11:46:27;;;;;;;2.42;1.13;;;;;;;;;;5051602;28;20412;-77
2023/08/08 11:48:54;;;;;;;3.67;1.30;;;;;;;;;;5053315;28;20439;-77
2023/08/08 11:51:20;;;;;;;3.28;1.50;;;;;;;;;;5052171;28;20411;-77
2023/08/08 11:53:50;;;;;;;3.55;1.40;;;;;;;;;;5049775;28;20436;-77
2023/08/08 11:56:16;;;;;;;2.00;1.40;;;;;;;;;;5035161;28;20191;-77
2023/08/08 11:58:42;;;;;;;4.17;1.60;;;;;;;;;;5018911;28;20240;-82
2023/08/08 12:01:09;;;;;;;3.87;1.50;;;;;;;;;;5018179;28;20250;-82
2023/08/08 12:03:38;;;;;;;3.30;1.40;;;;;;;;;;5065949;28;20173;-82
2023/08/08 12:06:11;;;;;;;2.20;1.40;;;;;;;;;;5045367;28;20439;-77
2023/08/08 12:08:37;;;;;;;3.60;1.48;;;;;;;;;;5051764;28;20446;-77
2023/08/08 12:11:05;;;;;;;3.00;1.50;;;;;;;;;;5051126;28;20458;-77
2023/08/08 12:13:32;;;;;;;2.33;1.40;;;;;;;;;;5035471;28;20415;-76
2023/08/08 12:15:59;;;;;;;2.42;1.30;;;;;;;;;;5051779;28;20415;-77
2023/08/08 12:18:25;;;;;;;2.30;1.40;;;;;;;;;;5052763;28;20431;-77
2023/08/08 12:20:51;;;;;;;3.50;1.50;;;;;;;;;;5052972;28;20410;-77
2023/08/08 12:23:17;;;;;;;3.30;1.30;;;;;;;;;;5034869;28;20456;-77
2023/08/08 12:25:43;;;;;;;2.60;1.43;;;;;;;;;;5064926;28;20418;-77
2023/08/08 12:28:10;;;;;;;3.42;1.40;;;;;;;;;;5048092;28;20421;-77
2023/08/08 12:30:36;;;;;;;3.80;1.40;;;;;;;;;;5065374;28;20424;-77
2023/08/08 12:33:02;;;;;;;2.95;1.30;;;;;;;;;;5061463;28;20188;-82
2023/08/08 12:35:28;;;;;;;3.77;1.43;;;;;;;;;;5031911;28;20413;-77
2023/08/08 12:37:54;;;;;;;1.67;1.30;;;;;;;;;;5017090;28;20211;-77
2023/08/08 12:40:20;;;;;;;2.60;1.60;;;;;;;;;;5064824;28;20457;-78
2023/08/08 12:42:47;;;;;;;3.47;1.90;;;;;;;;;;5033090;28;20413;-82
2023/08/08 12:45:13;;;;;;;3.30;1.50;;;;;;;;;;5048226;28;20426;-83
2023/08/08 12:47:40;;;;;;;3.67;1.50;;;;;;;;;;5064795;28;20445;-76
2023/08/08 12:50:07;;;;;;;1.48;1.25;;;;;;;;;;5011713;28;20204;-76
2023/08/08 12:52:33;;;;;;;3.53;1.60;;;;;;;;;;5029723;28;20410;-77
2023/08/08 12:54:59;;;;;;;2.50;1.40;;;;;;;;;;5015198;28;20414;-76
2023/08/08 12:57:25;;;;;;;2.92;1.60;;;;;;;;;;5033186;28;20433;-77
2023/08/08 12:59:52;;;;;;;2.80;1.40;;;;;;;;;;5036333;28;20393;-76
2023/08/08 13:02:18;;;;;;;3.30;1.50;;;;;;;;;;5035087;28;20401;-77
2023/08/08 13:04:44;;;;;;;4.68;1.50;;;;;;;;;;5018993;28;20405;-81
2023/08/08 13:07:10;;;;;;;2.50;1.50;;;;;;;;;;5018827;28;20417;-81
2023/08/08 13:09:37;;;;;;;2.57;1.50;;;;;;;;;;5013843;28;20412;-81
2023/08/08 13:12:03;;;;;;;3.17;1.40;;;;;;;;;;5024519;28;20447;-82
2023/08/08 13:14:29;;;;;;;2.10;1.33;;;;;;;;;;5042058;28;20401;-77
2023/08/08 13:16:55;;;;;;;2.63;1.48;;;;;;;;;;5035051;28;20398;-77
2023/08/08 13:19:24;;;;;;;3.97;1.45;;;;;;;;;;5034966;28;20444;-77
2023/08/08 13:21:51;;;;;;;3.80;1.70;;;;;;;;;;5041755;28;20416;-77
2023/08/08 13:24:17;;;;;;;1.90;1.40;;;;;;;;;;5020335;28;20446;-77
2023/08/08 13:26:43;;;;;;;2.97;1.60;;;;;;;;;;5015332;28;20422;-82
2023/08/08 13:29:10;;;;;;;3.47;1.50;;;;;;;;;;5048103;28;20424;-82
2023/08/08 13:31:36;;;;;;;3.47;1.58;;;;;;;;;;5054756;28;20408;-82
2023/08/08 13:34:02;;;;;;;3.45;1.40;;;;;;;;;;5034207;28;20434;-82
2023/08/08 13:36:28;;;;;;;2.53;1.60;;;;;;;;;;5043287;28;20426;-81
2023/08/08 13:38:54;;;;;;;4.05;1.52;;;;;;;;;;5051405;28;20433;-77
2023/08/08 13:41:20;;;;;;;3.35;1.58;;;;;;;;;;5067707;28;20404;-77
2023/08/08 13:43:46;;;;;;;3.25;1.50;;;;;;;;;;5067943;28;20504;-77
2023/08/08 13:46:12;;;;;;;2.90;1.70;;;;;;;;;;5050863;28;20412;-77
2023/08/08 13:48:38;;;;;;;3.10;1.60;;;;;;;;;;5050932;28;20421;-77
2023/08/08 13:51:04;;;;;;;3.17;1.45;;;;;;;;;;5054795;28;20189;-78
2023/08/08 13:53:30;;;;;;;3.55;1.60;;;;;;;;;;5028167;28;20440;-77
2023/08/08 13:55:56;;;;;;;2.33;1.40;;;;;;;;;;5067528;28;20410;-77
2023/08/08 13:58:22;;;;;;;4.28;1.40;;;;;;;;;;5035033;28;20436;-77
2023/08/08 14:00:48;;;;;;;3.25;1.50;;;;;;;;;;5053656;28;20419;-77
2023/08/08 14:03:15;;;;;;;2.40;1.57;;;;;;;;;;5047313;28;20407;-77
2023/08/08 14:05:41;;;;;;;3.72;1.60;;;;;;;;;;5047565;28;20416;-77
2023/08/08 14:08:07;;;;;;;2.60;1.65;;;;;;;;;;5069709;28;20511;-78
2023/08/08 14:10:33;;;;;;;3.95;1.90;;;;;;;;;;5052843;28;20418;-77
2023/08/08 14:12:59;;;;;;;3.80;2.00;;;;;;;;;;5079929;28;20403;-77
2023/08/08 14:15:25;;;;;;;3.00;1.85;;;;;;;;;;5053937;28;20423;-77
2023/08/08 14:17:52;;;;;;;3.23;1.83;;;;;;;;;;5037136;28;20510;-77
2023/08/08 14:20:18;;;;;;;4.63;1.80;;;;;;;;;;5053614;28;20404;-77
2023/08/08 14:22:48;;;;;;;3.03;1.70;;;;;;;;;;5050761;28;20451;-77
2023/08/08 14:25:14;;;;;;;3.65;1.63;;;;;;;;;;5052541;28;20408;-77
2023/08/08 14:27:40;;;;;;;3.03;1.60;;;;;;;;;;5050131;28;20492;-77
2023/08/08 14:30:07;;;;;;;2.53;1.53;;;;;;;;;;5067337;28;20506;-77
2023/08/08 14:32:33;;;;;;;3.00;1.55;;;;;;;;;;5067566;28;20416;-77